Time;durP1;ratioP1;P1;durP2;ratioP2;P2;SDS_P1;SDS_P2;PMS_P1;PMS_P2;Temp;Humidity;BMP_temperature;BMP_pressure;BME280_temperature;BME280_humidity;BME280_pressure;Samples;Min_cycle;Max_cycle;Signal;HPM_P1;HPM_P2
2023/10/02 06:50:55;;;;;;;;;24.75;20.75;;;;;19.16;75.72;101581.47;6302539;22;45657;-77
2023/10/02 06:53:23;;;;;;;;;25.25;16.50;;;;;18.95;75.41;101551.06;6308334;22;45294;-77
2023/10/02 06:55:58;;;;;;;;;18.50;16.50;;;;;19.14;75.94;101581.56;6307678;22;45218;-77
2023/10/02 06:58:25;;;;;;;;;25.50;22.25;;;;;19.15;75.58;101572.50;6317320;22;45342;-77
2023/10/02 07:01:01;;;;;;;;;19.25;16.75;;;;;19.18;75.78;101583.16;6337665;22;45374;-78
2023/10/02 07:03:27;;;;;;;;;17.75;14.25;;;;;19.20;75.66;101581.22;6338356;22;45461;-78
2023/10/02 07:05:52;;;;;;;;;21.25;17.00;;;;;19.20;75.50;101574.94;6337309;22;45299;-78
2023/10/02 07:08:21;;;;;;;;;25.25;17.50;;;;;19.23;75.42;101580.19;6338180;22;45276;-78
2023/10/02 07:10:47;;;;;;;;;23.50;18.75;;;;;19.19;75.35;101575.91;6338340;22;45353;-78
2023/10/02 07:13:22;;;;;;;;;16.50;15.25;;;;;19.25;75.45;101580.97;6338695;22;45406;-78
2023/10/02 07:15:59;;;;;;;;;22.50;17.50;;;;;19.25;75.74;101579.13;6310633;22;45721;-77
2023/10/02 07:18:37;;;;;;;;;18.00;15.25;;;;;19.29;75.56;101590.66;6337156;22;45252;-77
2023/10/02 07:21:07;;;;;;;;;23.25;17.50;;;;;19.24;75.58;101573.81;6338772;22;45266;-79
2023/10/02 07:23:37;;;;;;;;;20.50;19.75;;;;;19.21;75.29;101571.25;6337372;22;46353;-76
2023/10/02 07:26:05;;;;;;;;;27.25;20.25;;;;;19.28;75.70;101579.91;6337991;22;45597;-76
2023/10/02 07:28:31;;;;;;;;;16.25;16.25;;;;;19.28;75.58;101578.09;6335920;22;45461;-76
2023/10/02 07:30:57;;;;;;;;;20.75;16.25;;;;;19.30;75.65;101581.59;6340011;22;45352;-76
2023/10/02 07:33:23;;;;;;;;;20.25;17.50;;;;;19.28;75.62;101575.41;6338821;22;45235;-77
2023/10/02 07:35:54;;;;;;;;;18.25;14.75;;;;;19.32;75.23;101581.50;6337966;22;45246;-76
2023/10/02 07:38:30;;;;;;;;;25.25;17.75;;;;;19.32;75.27;101578.81;6337087;22;45317;-76
2023/10/02 07:41:06;;;;;;;;;18.00;16.00;;;;;19.37;75.22;101576.72;6310849;22;45310;-76
2023/10/02 07:43:31;;;;;;;;;22.75;19.50;;;;;19.32;75.44;101567.97;6337070;22;46573;-76
2023/10/02 07:46:02;;;;;;;;;20.75;17.00;;;;;19.25;75.44;101556.63;6338484;22;45316;-76
2023/10/02 07:48:33;;;;;;;;;26.00;20.00;;;;;19.35;75.20;101562.41;6337527;22;45186;-76
2023/10/02 07:51:00;;;;;;;;;20.50;20.25;;;;;19.33;75.85;101554.34;6310737;22;45456;-76
2023/10/02 07:53:38;;;;;;;;;21.00;20.00;;;;;19.45;75.63;101574.44;6338579;22;45314;-76
2023/10/02 07:56:05;;;;;;;;;19.50;16.00;;;;;19.47;75.55;101575.22;6338175;22;45230;-76
2023/10/02 07:58:31;;;;;;;;;22.25;18.50;;;;;19.45;75.41;101577.16;6338424;22;45422;-76
2023/10/02 08:01:06;;;;;;;;;20.75;18.00;;;;;19.50;75.32;101577.75;6338540;22;45226;-76
2023/10/02 08:03:34;;;;;;;;;25.75;22.00;;;;;19.52;75.65;101580.38;6337788;22;45182;-77
2023/10/02 08:06:20;;;;;;;;;21.00;18.50;;;;;19.47;75.49;101567.09;6338678;22;45574;-77
2023/10/02 08:11:41;;;;;;;;;20.00;16.75;;;;;19.58;75.21;101574.63;6338366;22;45315;-76
2023/10/02 08:14:34;;;;;;;;;24.25;19.75;;;;;19.61;75.44;101577.13;6337663;22;46186;-76
2023/10/02 08:16:59;;;;;;;;;27.75;25.00;;;;;19.62;74.76;101582.47;6337122;22;45636;-77
2023/10/02 08:19:24;;;;;;;;;20.25;20.00;;;;;19.61;75.07;101578.03;6338660;22;45346;-76
2023/10/02 08:21:50;;;;;;;;;23.25;21.00;;;;;19.70;74.92;101578.47;6337055;22;45237;-76
2023/10/02 08:24:15;;;;;;;;;27.00;19.75;;;;;19.69;75.32;101574.00;6338919;22;45573;-76
2023/10/02 08:26:45;;;;;;;;;24.50;22.00;;;;;19.76;74.42;101579.03;6338084;22;45364;-78
2023/10/02 08:29:15;;;;;;;;;22.00;19.50;;;;;19.79;74.11;101583.38;6336994;22;45337;-79
2023/10/02 08:31:43;;;;;;;;;22.50;17.25;;;;;19.82;73.79;101575.06;6338193;22;45287;-76
2023/10/02 08:34:15;;;;;;;;;15.00;14.50;;;;;19.87;74.16;101580.22;6337562;22;46068;-76
2023/10/02 08:36:40;;;;;;;;;26.75;20.75;;;;;19.91;73.67;101570.94;6338160;22;45260;-76
2023/10/02 08:39:08;;;;;;;;;21.50;16.00;;;;;19.95;73.42;101572.53;6337680;22;45248;-76
2023/10/02 08:41:43;;;;;;;;;27.00;22.25;;;;;19.98;73.73;101578.63;6336707;22;45345;-76
2023/10/02 08:44:13;;;;;;;;;22.50;18.50;;;;;20.03;73.44;101578.38;6337489;22;47068;-76
2023/10/02 08:46:42;;;;;;;;;24.00;17.50;;;;;20.07;73.78;101587.19;6336717;22;45462;-76
2023/10/02 08:49:09;;;;;;;;;28.00;24.00;;;;;20.15;73.81;101583.06;6337480;22;45312;-75
2023/10/02 08:51:38;;;;;;;;;28.25;23.25;;;;;20.17;73.50;101578.41;6338242;22;45429;-76
2023/10/02 08:54:05;;;;;;;;;23.00;21.00;;;;;20.16;73.59;101564.94;6336907;22;46041;-76
2023/10/02 08:56:48;;;;;;;;;23.25;20.75;;;;;20.29;72.71;101575.94;6337034;22;45560;-76
2023/10/02 08:59:26;;;;;;;;;18.00;15.75;;;;;20.35;72.87;101567.44;6337945;22;45256;-76
2023/10/02 09:02:07;;;;;;;;;27.00;21.50;;;;;20.46;72.84;101578.47;6339826;22;45288;-76
2023/10/02 09:04:33;;;;;;;;;28.75;22.00;;;;;20.51;72.45;101573.69;6310457;22;47568;-76
2023/10/02 09:07:04;;;;;;;;;22.75;20.50;;;;;20.54;72.64;101573.47;6311623;22;45446;-76
2023/10/02 09:12:03;;;;;;;;;29.50;20.75;;;;;20.69;72.49;101571.69;6339792;22;45304;-75
2023/10/02 09:17:12;;;;;;;;;24.50;21.75;;;;;20.81;71.95;101566.47;6339636;22;45417;-75
2023/10/02 09:19:48;;;;;;;;;22.00;20.75;;;;;20.82;71.53;101555.53;6338013;22;45248;-75
2023/10/02 09:22:16;;;;;;;;;21.00;21.00;;;;;20.94;71.62;101566.59;6337914;22;45500;-75
2023/10/02 09:24:55;;;;;;;;;22.75;22.75;;;;;20.98;71.67;101570.84;6339605;22;45917;-76
2023/10/02 09:27:30;;;;;;;;;22.75;19.00;;;;;21.01;71.06;101557.06;6339360;22;45407;-76
2023/10/02 09:30:15;;;;;;;;;24.25;20.50;;;;;21.12;71.06;101560.00;6337157;22;45497;-76
2023/10/02 09:32:49;;;;;;;;;26.50;24.50;;;;;21.20;70.98;101562.19;6337745;22;45430;-76
2023/10/02 09:35:44;;;;;;;;;25.00;21.75;;;;;21.19;70.81;101550.47;6338338;22;46094;-76
2023/10/02 09:38:12;;;;;;;;;23.50;18.00;;;;;21.32;70.78;101558.69;6337431;22;45219;-76
2023/10/02 09:43:28;;;;;;;;;20.50;19.25;;;;;21.45;69.47;101550.59;6338131;22;45195;-75
2023/10/02 09:45:55;;;;;;;;;24.50;18.00;;;;;21.51;69.85;101552.09;6337662;22;46434;-76
2023/10/02 09:48:57;;;;;;;;;24.50;23.00;;;;;21.48;69.50;101533.28;6338043;22;45252;-87
2023/10/02 09:51:37;;;;;;;;;27.75;25.75;;;;;21.61;69.26;101543.22;6335913;22;45376;-86
2023/10/02 09:54:09;;;;;;;;;20.00;17.00;;;;;21.67;70.02;101536.53;6337631;22;45347;-84
2023/10/02 09:57:05;;;;;;;;;23.00;21.25;;;;;21.77;69.66;101542.22;6338064;22;45412;-84
2023/10/02 09:59:46;;;;;;;;;28.00;23.25;;;;;21.65;69.49;101505.84;6310350;22;45418;-84
2023/10/02 10:07:52;;;;;;;;;24.50;20.00;;;;;22.06;68.29;101526.66;6337815;22;46226;-83
2023/10/02 10:10:27;;;;;;;;;28.25;24.00;;;;;22.07;68.85;101520.25;6337195;22;45335;-82
2023/10/02 10:12:55;;;;;;;;;27.50;21.00;;;;;22.17;68.18;101525.94;6310575;22;45353;-82
2023/10/02 10:15:27;;;;;;;;;35.25;22.75;;;;;22.15;68.52;101506.09;6310715;22;45471;-82
2023/10/02 10:17:55;;;;;;;;;27.75;24.75;;;;;22.23;68.38;101508.31;6311174;22;46944;-82
2023/10/02 10:20:22;;;;;;;;;22.00;18.50;;;;;22.32;67.68;101503.13;6339138;22;45280;-82
2023/10/02 10:22:55;;;;;;;;;27.00;22.75;;;;;22.40;67.49;101513.44;6334913;22;45335;-82
2023/10/02 10:27:54;;;;;;;;;20.67;18.00;;;;;22.54;68.05;101512.50;6335509;22;45319;-83
2023/10/02 10:30:26;;;;;;;;;26.00;21.75;;;;;22.61;67.26;101496.63;6339747;22;45281;-82
2023/10/02 10:33:01;;;;;;;;;21.00;18.75;;;;;22.68;67.27;101489.75;6338846;22;45226;-77
2023/10/02 10:35:48;;;;;;;;;29.25;22.75;;;;;22.71;66.53;101487.66;6310509;22;45333;-81
2023/10/02 10:38:26;;;;;;;;;22.75;19.75;;;;;22.80;67.09;101487.97;6307732;22;47068;-80
2023/10/02 10:41:05;;;;;;;;;22.50;21.25;;;;;22.80;66.67;101483.41;6339561;22;45599;-80
2023/10/02 10:43:46;;;;;;;;;23.00;22.75;;;;;22.85;66.66;101483.94;6338816;22;45179;-80
2023/10/02 10:46:24;;;;;;;;;26.50;22.00;;;;;22.93;66.95;101483.41;6311463;22;45313;-80
2023/10/02 10:49:38;;;;;;;;;21.00;18.00;;;;;22.98;66.66;101477.63;6308563;22;48407;-80
2023/10/02 10:51:44;;;;;;;;;22.50;19.25;;;;;23.05;66.87;101477.03;6325745;22;45385;-80
2023/10/02 10:54:12;;;;;;;;;22.25;18.00;;;;;23.13;66.76;101479.25;6338566;22;45488;-80
2023/10/02 10:56:44;;;;;;;;;22.75;18.75;;;;;23.20;66.48;101475.06;6338097;22;45424;-80
2023/10/02 10:59:11;;;;;;;;;24.50;21.25;;;;;23.21;65.88;101460.47;6309412;22;47965;-80
2023/10/02 11:02:16;;;;;;;;;27.00;22.75;;;;;23.33;65.91;101468.72;6339901;22;45319;-80
2023/10/02 11:04:49;;;;;;;;;26.00;19.75;;;;;23.42;65.67;101463.47;6338786;22;45298;-80
2023/10/02 11:07:23;;;;;;;;;23.50;19.50;;;;;23.50;65.27;101457.41;6338994;22;45226;-80
2023/10/02 11:10:15;;;;;;;;;23.00;20.00;;;;;23.54;64.75;101453.47;6338846;22;45884;-80
2023/10/02 11:12:54;;;;;;;;;20.50;19.50;;;;;23.59;65.00;101447.66;6335109;22;45324;-80
2023/10/02 11:18:26;;;;;;;;;32.75;22.25;;;;;23.64;65.02;101427.25;6338103;22;45535;-80
2023/10/02 11:20:54;;;;;;;;;24.00;22.00;;;;;23.71;65.10;101432.25;6337271;22;45317;-80
2023/10/02 11:23:40;;;;;;;;;27.75;20.25;;;;;23.76;63.95;101438.22;6309875;22;45423;-79
2023/10/02 11:26:13;;;;;;;;;19.25;18.00;;;;;23.74;64.67;101416.53;6312055;22;45332;-80
2023/10/02 11:28:41;;;;;;;;;20.00;14.50;;;;;23.89;63.53;101428.13;6337490;22;45166;-80
2023/10/02 11:31:30;;;;;;;;;21.00;20.50;;;;;23.91;63.87;101420.69;6338568;22;45268;-79
2023/10/02 11:34:04;;;;;;;;;25.50;22.25;;;;;23.95;63.75;101416.72;6309398;22;45291;-80
2023/10/02 11:36:34;;;;;;;;;25.50;21.25;;;;;24.10;62.98;101424.69;6338149;22;45197;-81
2023/10/02 11:39:19;;;;;;;;;23.75;19.75;;;;;24.00;62.71;101400.00;6310501;22;45757;-81
2023/10/02 11:41:49;;;;;;;;;22.25;19.50;;;;;24.20;62.64;101436.59;6306095;22;47677;-80
2023/10/02 11:44:14;;;;;;;;;25.25;22.00;;;;;24.19;62.68;101419.38;6310836;22;46155;-80
2023/10/02 11:46:40;;;;;;;;;19.25;16.00;;;;;24.26;62.95;101432.50;6338949;22;45287;-81
2023/10/02 11:49:06;;;;;;;;;29.00;26.00;;;;;24.21;63.06;101416.53;6336640;22;45210;-81
2023/10/02 11:51:33;;;;;;;;;24.75;20.50;;;;;24.26;62.68;101411.59;6335615;22;45279;-81
2023/10/02 11:53:59;;;;;;;;;22.00;19.00;;;;;24.23;62.87;101400.91;6337859;22;45481;-81
2023/10/02 11:56:26;;;;;;;;;22.25;18.25;;;;;24.38;63.06;101407.00;6308541;22;45237;-81
2023/10/02 11:58:56;;;;;;;;;27.00;19.50;;;;;24.37;62.25;101392.50;6308839;22;45525;-80
2023/10/02 12:01:22;;;;;;;;;26.00;24.25;;;;;24.46;61.67;101406.38;6338700;22;45447;-80
2023/10/02 12:03:50;;;;;;;;;25.75;22.25;;;;;24.46;62.34;101409.09;6339437;22;45408;-80
2023/10/02 12:06:16;;;;;;;;;18.00;16.25;;;;;24.48;61.49;101407.13;6334990;22;45296;-80
2023/10/02 12:08:44;;;;;;;;;28.00;21.25;;;;;24.48;62.19;101394.34;6307595;22;45837;-80
2023/10/02 12:11:12;;;;;;;;;25.00;21.50;;;;;24.51;60.88;101388.66;6337575;22;45884;-79
2023/10/02 12:13:37;;;;;;;;;24.75;20.75;;;;;24.59;61.41;101396.22;6335953;22;45414;-79
2023/10/02 12:16:05;;;;;;;;;25.00;19.25;;;;;24.60;60.83;101379.72;6337061;22;45398;-79
2023/10/02 12:18:32;;;;;;;;;24.75;20.50;;;;;24.69;61.16;101388.16;6337755;22;45373;-79
2023/10/02 12:20:58;;;;;;;;;25.75;21.00;;;;;24.71;61.06;101378.00;6337963;22;45322;-79
2023/10/02 12:23:23;;;;;;;;;18.50;16.25;;;;;24.74;60.55;101370.41;6337608;22;45316;-79
2023/10/02 12:25:48;;;;;;;;;26.25;20.25;;;;;24.82;60.44;101377.97;6338045;22;45644;-79
2023/10/02 12:28:15;;;;;;;;;24.25;17.50;;;;;24.81;60.42;101370.78;6335936;22;45390;-79
2023/10/02 12:30:41;;;;;;;;;21.25;18.25;;;;;24.86;60.01;101370.38;6307980;22;47953;-79
2023/10/02 12:33:06;;;;;;;;;24.00;19.00;;;;;24.91;60.06;101373.63;6335731;22;45249;-79
2023/10/02 12:35:33;;;;;;;;;23.25;20.00;;;;;24.95;59.91;101369.63;6334422;22;45335;-80
2023/10/02 12:37:58;;;;;;;;;21.25;17.75;;;;;25.00;59.43;101366.50;6332920;22;45286;-80
2023/10/02 12:40:31;;;;;;;;;19.50;17.50;;;;;25.04;58.86;101357.94;6306821;22;47138;-80
2023/10/02 12:42:57;;;;;;;;;27.50;20.25;;;;;25.11;58.34;101350.09;6305812;22;45800;-81
2023/10/02 12:45:23;;;;;;;;;25.25;20.00;;;;;25.13;58.76;101348.09;6331869;22;45806;-80
2023/10/02 12:47:48;;;;;;;;;18.50;18.50;;;;;25.17;58.24;101345.97;6331275;22;45707;-80
2023/10/02 12:50:13;;;;;;;;;16.00;15.25;;;;;25.23;58.44;101343.59;6331868;22;45695;-81
2023/10/02 12:52:39;;;;;;;;;24.25;19.50;;;;;25.28;58.49;101338.63;6334287;22;45309;-81
2023/10/02 12:55:05;;;;;;;;;25.25;23.50;;;;;25.30;58.63;101320.22;6335113;22;46034;-81
2023/10/02 12:57:30;;;;;;;;;20.00;20.00;;;;;25.35;58.49;101308.91;6333262;22;45421;-81
2023/10/02 12:59:55;;;;;;;;;22.25;17.75;;;;;25.44;57.96;101315.44;6306792;22;56311;-81
2023/10/02 13:02:21;;;;;;;;;17.25;17.25;;;;;25.49;57.88;101311.31;6335075;22;45367;-81
2023/10/02 13:04:46;;;;;;;;;18.00;17.50;;;;;25.58;58.22;101306.91;6332399;22;45360;-81
2023/10/02 13:07:12;;;;;;;;;18.00;15.00;;;;;25.63;57.57;101292.84;6305397;22;45308;-81
2023/10/02 13:09:37;;;;;;;;;17.75;15.75;;;;;25.60;56.97;101277.56;6332782;22;45876;-81
2023/10/02 13:12:03;;;;;;;;;20.75;17.75;;;;;25.75;57.14;101289.03;6333468;22;45841;-81
2023/10/02 13:14:28;;;;;;;;;2.50;0.75;;;;;25.69;56.31;101276.78;6335434;22;45677;-81
2023/10/02 13:16:54;;;;;;;;;18.25;15.75;;;;;25.77;57.16;101280.69;6334921;22;45371;-81
2023/10/02 13:19:19;;;;;;;;;20.50;17.25;;;;;25.73;56.60;101271.91;6332542;22;45515;-81
2023/10/02 13:21:45;;;;;;;;;19.25;16.50;;;;;25.81;56.14;101280.28;6306461;22;45339;-81
2023/10/02 13:24:14;;;;;;;;;15.75;14.25;;;;;25.83;56.38;101277.44;6307445;22;45393;-81
2023/10/02 13:26:40;;;;;;;;;19.00;16.75;;;;;25.84;55.48;101269.09;6307543;22;45619;-79
2023/10/02 13:29:06;;;;;;;;;17.50;12.25;;;;;25.84;56.35;101260.88;6306864;22;47843;-81
2023/10/02 13:31:31;;;;;;;;;18.00;15.50;;;;;25.83;56.20;101255.56;6335423;22;45709;-80
2023/10/02 13:33:57;;;;;;;;;15.75;14.50;;;;;25.95;55.48;101257.22;6306959;22;45396;-80
2023/10/02 13:36:24;;;;;;;;;23.25;18.50;;;;;26.01;55.41;101258.50;6334576;22;45455;-80
2023/10/02 13:38:50;;;;;;;;;17.50;17.50;;;;;26.04;55.31;101256.41;6305976;22;47319;-80
2023/10/02 13:41:17;;;;;;;;;22.25;19.50;;;;;26.08;55.38;101259.72;6307579;22;45580;-80
2023/10/02 13:43:44;;;;;;;;;18.00;17.50;;;;;26.07;55.69;101247.03;6334827;22;45465;-81
2023/10/02 13:46:11;;;;;;;;;16.75;14.25;;;;;26.15;55.69;101252.69;6338163;22;45350;-81
2023/10/02 13:48:40;;;;;;;;;18.25;16.25;;;;;26.15;55.19;101244.47;6337769;22;46255;-81
2023/10/02 13:51:06;;;;;;;;;18.75;15.50;;;;;26.04;55.78;101225.41;6311622;22;46321;-81
2023/10/02 13:53:33;;;;;;;;;21.00;14.00;;;;;26.21;55.60;101254.88;6338766;22;45237;-81
2023/10/02 13:56:09;;;;;;;;;23.50;21.50;;;;;26.25;55.17;101253.56;6338638;22;45352;-81
2023/10/02 13:58:42;;;;;;;;;18.50;15.50;;;;;26.30;55.26;101244.09;6309700;22;48109;-82
2023/10/02 14:01:08;;;;;;;;;18.50;17.25;;;;;26.27;54.92;101223.34;6311675;22;45829;-81
2023/10/02 14:03:34;;;;;;;;;20.75;19.00;;;;;26.38;54.95;101225.06;6310960;22;45213;-81
2023/10/02 14:06:04;;;;;;;;;15.00;15.00;;;;;26.39;55.05;101227.66;6338250;22;45316;-81
2023/10/02 14:08:30;;;;;;;;;21.50;18.25;;;;;26.41;55.04;101222.94;6336256;22;47311;-81
2023/10/02 14:10:55;;;;;;;;;19.50;16.50;;;;;26.46;54.65;101216.16;6339700;22;45130;-80
2023/10/02 14:13:21;;;;;;;;;22.50;17.75;;;;;26.49;54.88;101213.16;6339704;22;45185;-81
2023/10/02 14:15:46;;;;;;;;;18.25;17.00;;;;;26.36;54.73;101192.41;6338571;22;45371;-82
2023/10/02 14:18:13;;;;;;;;;22.50;18.25;;;;;26.50;54.42;101206.69;6338647;22;45371;-82
2023/10/02 14:20:38;;;;;;;;;21.25;18.00;;;;;26.54;55.02;101208.97;6338295;22;45468;-81
2023/10/02 14:23:08;;;;;;;;;16.00;14.75;;;;;26.56;54.44;101206.97;6310999;22;45244;-82
2023/10/02 14:25:38;;;;;;;;;21.00;19.00;;;;;26.56;54.68;101201.50;6310068;22;45467;-82
2023/10/02 14:28:04;;;;;;;;;20.50;16.25;;;;;26.54;55.07;101189.78;6337610;22;45617;-81
2023/10/02 14:30:31;;;;;;;;;19.75;16.50;;;;;26.60;54.53;101191.13;6338082;22;45422;-82
2023/10/02 14:32:58;;;;;;;;;15.25;14.75;;;;;26.61;54.83;101181.88;6338904;22;45347;-82
2023/10/02 14:35:26;;;;;;;;;18.50;17.50;;;;;26.69;54.39;101178.47;6337284;22;45265;-82
2023/10/02 14:37:52;;;;;;;;;18.00;14.50;;;;;26.71;54.19;101171.81;6331038;22;45256;-82
2023/10/02 14:40:29;;;;;;;;;13.75;13.75;;;;;26.73;53.75;101179.88;6335376;22;45927;-82
2023/10/02 14:42:57;;;;;;;;;17.00;14.50;;;;;26.74;54.22;101182.47;6337763;22;45368;-82
2023/10/02 14:45:26;;;;;;;;;20.00;17.25;;;;;26.69;54.01;101165.63;6338875;22;45256;-82
2023/10/02 14:47:59;;;;;;;;;15.75;14.00;;;;;26.78;54.17;101169.38;6337198;22;45574;-82
2023/10/02 14:50:25;;;;;;;;;19.25;15.25;;;;;26.75;54.41;101162.31;6307963;22;45651;-82
2023/10/02 14:52:55;;;;;;;;;19.00;17.00;;;;;26.73;53.87;101156.13;6310243;22;45273;-82
2023/10/02 14:55:27;;;;;;;;;23.75;19.25;;;;;26.82;53.81;101162.59;6337376;22;45344;-82
2023/10/02 14:57:53;;;;;;;;;17.50;13.50;;;;;26.82;53.62;101156.28;6336752;22;45645;-82
2023/10/02 15:00:23;;;;;;;;;20.00;17.75;;;;;26.80;53.77;101146.31;6309198;22;45324;-82
2023/10/02 15:02:50;;;;;;;;;20.25;16.50;;;;;26.78;53.15;101139.25;6338835;22;45452;-82
2023/10/02 15:05:16;;;;;;;;;17.00;16.25;;;;;26.73;53.60;101130.59;6310938;22;45293;-82
2023/10/02 15:07:43;;;;;;;;;21.25;15.25;;;;;26.86;53.76;101155.81;6338037;22;45321;-82
2023/10/02 15:10:10;;;;;;;;;21.00;17.00;;;;;26.87;53.67;101151.22;6311117;22;45431;-82
2023/10/02 15:12:36;;;;;;;;;15.25;12.00;;;;;26.88;53.62;101148.34;6338729;22;45333;-82
2023/10/02 15:15:01;;;;;;;;;19.75;15.50;;;;;26.86;53.09;101142.13;6338591;22;45397;-82
2023/10/02 15:17:26;;;;;;;;;13.25;12.50;;;;;26.87;53.39;101130.16;6338500;22;45285;-82
2023/10/02 15:19:52;;;;;;;;;14.50;13.00;;;;;26.87;53.38;101126.56;6336797;22;45382;-82
2023/10/02 15:22:17;;;;;;;;;15.75;14.00;;;;;26.83;53.26;101117.78;6337834;22;45654;-82
2023/10/02 15:24:42;;;;;;;;;18.00;17.00;;;;;26.93;53.13;101132.31;6337011;22;45460;-82
2023/10/02 15:27:08;;;;;;;;;20.00;13.00;;;;;26.89;53.27;101122.66;6310563;22;46993;-82
2023/10/02 15:29:33;;;;;;;;;10.50;9.75;;;;;26.93;53.67;101137.81;6338472;22;45418;-82
2023/10/02 15:31:58;;;;;;;;;15.00;14.75;;;;;26.95;53.12;101135.78;6336900;22;48734;-82
2023/10/02 15:34:24;;;;;;;;;15.00;12.25;;;;;26.94;53.28;101134.03;6337825;22;45351;-82
2023/10/02 15:36:50;;;;;;;;;15.00;12.25;;;;;26.96;53.53;101129.28;6338314;22;45304;-82
2023/10/02 15:39:18;;;;;;;;;15.00;12.00;;;;;26.98;53.00;101121.78;6338357;22;45249;-82
2023/10/02 15:41:44;;;;;;;;;18.75;13.75;;;;;26.93;53.07;101106.78;6339367;22;45215;-82
2023/10/02 15:44:18;;;;;;;;;16.75;15.25;;;;;27.03;52.99;101114.97;6338565;22;45524;-82
2023/10/02 15:46:46;;;;;;;;;15.00;13.75;;;;;27.02;52.98;101116.00;6309928;22;48207;-82
2023/10/02 15:49:12;;;;;;;;;16.75;15.00;;;;;26.92;53.22;101096.84;6307974;22;45190;-82
2023/10/02 15:51:39;;;;;;;;;14.75;13.25;;;;;26.93;53.08;101098.56;6337350;22;45320;-82
2023/10/02 15:54:04;;;;;;;;;17.25;16.00;;;;;26.98;53.18;101109.94;6338418;22;45435;-82
2023/10/02 15:56:31;;;;;;;;;14.50;13.50;;;;;26.91;53.27;101098.72;6338169;22;46294;-82
2023/10/02 15:58:57;;;;;;;;;16.75;14.50;;;;;26.95;53.04;101113.00;6337859;22;45253;-82
2023/10/02 16:01:22;;;;;;;;;11.75;11.75;;;;;26.83;52.88;101087.66;6310604;22;45347;-82
2023/10/02 16:03:47;;;;;;;;;12.50;11.50;;;;;26.98;53.38;101101.72;6338196;22;45372;-82
2023/10/02 16:06:18;;;;;;;;;12.50;9.50;;;;;27.00;53.37;101102.47;6336501;22;45693;-82
2023/10/02 16:08:52;;;;;;;;;14.00;12.75;;;;;27.00;53.63;101107.94;6307841;22;45367;-82
2023/10/02 16:11:22;;;;;;;;;14.75;12.75;;;;;26.96;53.54;101099.16;6310160;22;45329;-82
2023/10/02 16:13:48;;;;;;;;;17.00;12.00;;;;;26.99;53.91;101103.47;6310001;22;45610;-82
2023/10/02 16:16:14;;;;;;;;;11.25;10.25;;;;;26.93;54.16;101090.34;6337643;22;45237;-82
2023/10/02 16:18:39;;;;;;;;;15.50;12.00;;;;;26.97;53.98;101097.28;6309656;22;45272;-82
2023/10/02 16:21:11;;;;;;;;;13.25;11.75;;;;;26.96;53.92;101082.72;6310572;22;45221;-82
2023/10/02 16:23:40;;;;;;;;;9.50;8.00;;;;;26.95;53.99;101082.88;6338287;22;45256;-82
2023/10/02 16:26:13;;;;;;;;;16.25;11.75;;;;;26.92;54.08;101073.06;6309876;22;48193;-82
2023/10/02 16:28:38;;;;;;;;;11.75;10.25;;;;;26.89;54.22;101080.72;6336024;22;45299;-82
2023/10/02 16:31:04;;;;;;;;;11.25;10.50;;;;;26.91;54.24;101076.78;6338035;22;45572;-82
2023/10/02 16:33:29;;;;;;;;;15.00;14.00;;;;;26.85;54.27;101068.31;6311092;22;45417;-82
2023/10/02 16:35:56;;;;;;;;;15.75;12.00;;;;;26.79;54.40;101050.59;6335654;22;45581;-82
2023/10/02 16:38:22;;;;;;;;;10.25;10.25;;;;;26.88;54.45;101066.16;6334358;22;45205;-82
2023/10/02 16:40:48;;;;;;;;;16.25;12.50;;;;;26.84;54.23;101061.13;6336219;22;45290;-82
2023/10/02 16:43:13;;;;;;;;;12.00;10.25;;;;;26.85;54.59;101077.41;6337935;22;45569;-82
2023/10/02 16:45:41;;;;;;;;;13.75;11.50;;;;;26.78;55.02;101065.31;6308188;22;61756;-82
2023/10/02 16:48:07;;;;;;;;;12.00;12.00;;;;;26.76;54.06;101070.97;6332428;22;45765;-82
2023/10/02 16:50:32;;;;;;;;;15.00;11.25;;;;;26.82;54.75;101082.31;6337803;22;45195;-82
2023/10/02 16:52:58;;;;;;;;;11.00;9.75;;;;;26.80;54.55;101071.53;6337451;22;45417;-82
2023/10/02 16:55:25;;;;;;;;;14.00;11.50;;;;;26.79;55.01;101069.78;6331571;22;45333;-82
2023/10/02 16:57:50;;;;;;;;;14.50;12.25;;;;;26.70;54.84;101059.72;6309938;22;45366;-82
2023/10/02 17:00:20;;;;;;;;;12.50;9.25;;;;;26.75;55.24;101068.38;6329608;22;45355;-82
2023/10/02 17:02:46;;;;;;;;;15.50;13.00;;;;;26.64;55.46;101052.09;6337534;22;45213;-82
2023/10/02 17:05:14;;;;;;;;;13.25;12.25;;;;;26.71;55.18;101065.03;6337458;22;45506;-82
2023/10/02 17:07:40;;;;;;;;;16.00;12.75;;;;;26.62;55.63;101052.19;6337975;22;45369;-82
2023/10/02 17:10:12;;;;;;;;;12.75;10.25;;;;;26.68;55.51;101056.25;6309747;22;45281;-82
2023/10/02 17:12:42;;;;;;;;;12.75;11.75;;;;;26.64;55.32;101049.34;6331458;22;45225;-83
2023/10/02 17:15:12;;;;;;;;;15.50;15.00;;;;;26.61;55.62;101053.19;6337941;22;45591;-82
2023/10/02 17:17:41;;;;;;;;;15.25;12.75;;;;;26.47;55.87;101029.03;6337646;22;45269;-82
2023/10/02 17:20:08;;;;;;;;;14.00;12.00;;;;;26.59;56.00;101061.56;6309009;22;45360;-82
2023/10/02 17:22:37;;;;;;;;;15.25;11.50;;;;;26.59;55.84;101061.56;6312319;22;45282;-82
2023/10/02 17:25:04;;;;;;;;;15.50;11.25;;;;;26.50;56.37;101045.19;6338655;22;45778;-82
2023/10/02 17:27:29;;;;;;;;;15.50;13.00;;;;;26.43;56.53;101040.28;6309371;22;46096;-82
2023/10/02 17:29:56;;;;;;;;;16.00;13.00;;;;;26.48;56.82;101059.00;6337347;22;45264;-82
2023/10/02 17:32:21;;;;;;;;;14.50;11.25;;;;;26.48;56.94;101060.84;6332382;22;45351;-82
2023/10/02 17:34:46;;;;;;;;;12.50;11.00;;;;;26.38;56.70;101053.53;6338509;22;45681;-82
2023/10/02 17:37:12;;;;;;;;;14.25;13.50;;;;;26.41;57.13;101061.47;6336826;22;46172;-82
2023/10/02 17:39:38;;;;;;;;;13.00;10.25;;;;;26.38;56.74;101058.13;6335791;22;45442;-81
2023/10/02 17:42:04;;;;;;;;;17.00;13.50;;;;;26.32;57.03;101047.78;6339645;22;45344;-81
2023/10/02 17:44:29;;;;;;;;;15.75;11.75;;;;;26.31;57.41;101052.41;6337064;22;45283;-83
2023/10/02 17:46:55;;;;;;;;;15.00;12.75;;;;;26.29;56.95;101053.53;6310226;22;45567;-83
2023/10/02 17:49:21;;;;;;;;;14.00;12.25;;;;;26.24;57.07;101046.63;6338254;22;45272;-83
2023/10/02 17:51:47;;;;;;;;;8.50;8.50;;;;;26.21;57.55;101052.41;6335539;22;45494;-82
2023/10/02 17:54:14;;;;;;;;;17.50;12.25;;;;;26.16;58.16;101043.75;6336064;22;45769;-83
2023/10/02 17:56:39;;;;;;;;;11.50;10.50;;;;;26.19;57.72;101048.06;6334288;22;45765;-82
2023/10/02 17:59:06;;;;;;;;;16.75;12.50;;;;;26.16;57.61;101049.22;6333378;22;45630;-82
2023/10/02 18:01:31;;;;;;;;;8.25;7.25;;;;;26.12;57.76;101034.09;6304250;22;45419;-82
2023/10/02 18:03:57;;;;;;;;;12.00;10.75;;;;;26.12;57.96;101046.91;6334312;22;45372;-83
2023/10/02 18:06:23;;;;;;;;;11.50;11.50;;;;;26.01;57.99;101024.19;6306773;22;45329;-82
2023/10/02 18:08:48;;;;;;;;;19.25;14.75;;;;;25.98;58.49;101023.59;6336367;22;45347;-82
2023/10/02 18:11:13;;;;;;;;;19.00;13.25;;;;;25.97;58.03;101021.84;6335397;22;45325;-82
2023/10/02 18:13:39;;;;;;;;;12.50;12.25;;;;;25.95;58.15;101024.72;6323432;22;45742;-82
2023/10/02 18:16:04;;;;;;;;;14.00;9.75;;;;;25.97;58.14;101030.06;6325728;22;45352;-83
2023/10/02 18:18:30;;;;;;;;;15.50;12.25;;;;;25.94;58.12;101022.97;6334148;22;45348;-80
2023/10/02 18:21:01;;;;;;;;;10.00;9.50;;;;;25.93;58.17;101023.09;6334161;22;45500;-79
2023/10/02 18:23:28;;;;;;;;;12.50;8.75;;;;;25.82;58.64;101005.84;6334860;22;46196;-81
2023/10/02 18:25:53;;;;;;;;;14.00;10.50;;;;;25.85;58.60;101005.56;6332656;22;45822;-81
2023/10/02 18:28:19;;;;;;;;;11.25;11.00;;;;;25.85;59.25;101011.03;6306161;22;45449;-79
2023/10/02 18:30:48;;;;;;;;;14.00;11.50;;;;;25.77;58.51;100999.94;6333921;22;45447;-80